Time;durP1;ratioP1;P1;durP2;ratioP2;P2;SDS_P1;SDS_P2;PMS_P1;PMS_P2;Temp;Humidity;BMP_temperature;BMP_pressure;BME280_temperature;BME280_humidity;BME280_pressure;Samples;Min_cycle;Max_cycle;Signal;HPM_P1;HPM_P2
2022/06/20 00:00:54;;;;;;;17.93;8.07;;;;;;;27.00;44.09;97129.19;8477151;27;1271277;-80
2022/06/20 00:04:58;;;;;;;21.43;8.30;;;;;;;26.99;43.88;97125.69;8510740;27;20231;-82
2022/06/20 00:09:01;;;;;;;25.57;8.80;;;;;;;26.99;44.17;97119.56;8510645;27;20412;-81
2022/06/20 00:13:04;;;;;;;22.37;8.47;;;;;;;26.89;44.37;97110.09;8511073;27;20515;-82
2022/06/20 00:17:10;;;;;;;20.27;8.27;;;;;;;26.86;44.58;97102.47;8510440;27;20414;-82
2022/06/20 00:21:14;;;;;;;18.10;7.83;;;;;;;26.87;44.41;97114.75;8510606;27;20221;-83
2022/06/20 00:25:19;;;;;;;18.13;8.20;;;;;;;26.80;44.42;97111.22;8510437;27;20432;-82
2022/06/20 00:29:22;;;;;;;24.97;8.50;;;;;;;26.75;44.89;97118.13;8517889;27;20237;-78
2022/06/20 00:33:26;;;;;;;20.90;9.27;;;;;;;26.52;45.58;97127.91;8510160;27;20229;-82
2022/06/20 00:37:29;;;;;;;22.37;7.80;;;;;;;26.48;45.45;97118.69;8495995;27;20235;-85
2022/06/20 00:41:33;;;;;;;15.37;7.93;;;;;;;26.53;45.37;97116.28;8475807;27;20239;-83
2022/06/20 00:45:40;;;;;;;25.93;8.50;;;;;;;26.44;46.12;97121.91;8475508;28;20230;-81
2022/06/20 00:49:50;;;;;;;21.20;8.67;;;;;;;26.35;45.90;97118.56;8475751;28;20536;-82
2022/06/20 00:53:57;;;;;;;20.97;8.23;;;;;;;26.39;45.94;97122.47;8475364;27;20238;-86
2022/06/20 00:58:04;;;;;;;14.33;7.00;;;;;;;26.41;46.23;97138.22;8475134;28;20396;-80
2022/06/20 01:02:07;;;;;;;17.83;7.57;;;;;;;26.36;45.89;97136.13;8475357;28;20232;-79
2022/06/20 01:06:13;;;;;;;19.83;7.33;;;;;;;26.41;45.77;97127.59;8508897;27;20531;-80
2022/06/20 01:10:18;;;;;;;22.47;6.70;;;;;;;26.38;46.33;97130.63;8497535;27;20229;-81
2022/06/20 01:14:23;;;;;;;18.20;6.70;;;;;;;26.41;45.87;97138.22;8486187;28;20229;-80
2022/06/20 01:18:29;;;;;;;16.50;6.53;;;;;;;26.39;46.03;97154.31;8485409;27;20287;-81
2022/06/20 01:22:44;;;;;;;19.50;7.13;;;;;;;26.33;46.34;97145.28;8485836;27;20524;-80
2022/06/20 01:26:50;;;;;;;20.90;7.30;;;;;;;26.23;46.48;97138.63;8485719;27;20236;-81
2022/06/20 01:30:59;;;;;;;24.93;7.63;;;;;;;26.16;46.60;97135.91;8485729;28;20239;-81
2022/06/20 01:35:03;;;;;;;21.03;7.07;;;;;;;26.10;47.38;97133.97;8485571;27;20226;-80
2022/06/20 01:39:05;;;;;;;21.63;7.83;;;;;;;26.07;47.63;97132.53;8485194;27;20234;-81
2022/06/20 01:43:08;;;;;;;23.30;7.00;;;;;;;26.03;47.67;97127.81;8485162;28;20235;-81
2022/06/20 01:47:13;;;;;;;23.70;7.90;;;;;;;26.01;47.44;97129.78;8485075;28;20232;-81
2022/06/20 01:51:18;;;;;;;19.23;7.43;;;;;;;25.99;47.99;97145.06;8484966;28;20233;-81
2022/06/20 01:55:24;;;;;;;24.67;7.77;;;;;;;25.89;47.86;97140.88;8485206;28;20231;-81
2022/06/20 01:59:33;;;;;;;24.63;7.53;;;;;;;25.92;47.86;97145.00;8510158;27;20252;-81
2022/06/20 02:03:40;;;;;;;20.23;6.80;;;;;;;25.89;48.16;97145.34;8506439;27;20232;-81
2022/06/20 02:07:49;;;;;;;20.13;8.10;;;;;;;25.84;48.43;97140.59;8484417;28;20256;-81
2022/06/20 02:11:51;;;;;;;16.60;8.03;;;;;;;25.82;48.32;97145.28;8484244;27;20231;-81
2022/06/20 02:15:58;;;;;;;22.73;7.60;;;;;;;25.85;48.45;97144.06;8484298;27;20228;-81
2022/06/20 02:20:06;;;;;;;25.03;8.17;;;;;;;25.72;49.04;97132.28;8483872;28;20238;-81
2022/06/20 02:24:12;;;;;;;21.20;7.67;;;;;;;25.68;48.74;97132.84;8483293;28;20237;-81
2022/06/20 02:28:19;;;;;;;19.23;8.10;;;;;;;25.63;49.35;97120.13;8483918;28;20231;-81
2022/06/20 02:32:24;;;;;;;18.00;7.20;;;;;;;25.60;49.62;97112.53;8483356;28;20245;-80
2022/06/20 02:36:30;;;;;;;22.23;8.03;;;;;;;25.51;49.37;97103.88;8483456;27;20228;-81
2022/06/20 02:40:33;;;;;;;24.27;7.93;;;;;;;25.48;49.36;97100.78;8482981;28;20243;-81
2022/06/20 02:44:37;;;;;;;19.80;7.40;;;;;;;25.51;49.46;97103.03;8482732;27;20231;-80
2022/06/20 02:48:42;;;;;;;17.53;7.67;;;;;;;25.44;49.55;97092.38;8482580;27;20236;-81
2022/06/20 02:53:00;;;;;;;19.80;8.27;;;;;;;25.45;49.95;97094.00;8482613;28;20225;-81
2022/06/20 02:57:12;;;;;;;17.37;8.27;;;;;;;25.50;49.80;97088.16;8482631;28;20290;-80
2022/06/20 03:01:20;;;;;;;18.67;8.13;;;;;;;25.52;49.41;97078.19;8482453;28;20234;-81
2022/06/20 03:05:23;;;;;;;18.53;7.97;;;;;;;25.43;50.09;97072.16;8481965;28;20537;-80
2022/06/20 03:09:29;;;;;;;18.80;8.70;;;;;;;25.45;49.54;97075.44;8482034;28;20242;-81
2022/06/20 03:13:33;;;;;;;19.57;8.17;;;;;;;25.45;49.76;97071.97;8482095;27;20425;-81
2022/06/20 03:17:36;;;;;;;16.97;7.13;;;;;;;25.41;50.12;97068.06;8481860;28;20230;-81
2022/06/20 03:21:41;;;;;;;17.97;8.23;;;;;;;25.39;49.96;97073.53;8481847;28;20434;-81
2022/06/20 03:25:46;;;;;;;20.27;8.60;;;;;;;25.32;50.21;97062.84;8481659;28;20252;-81
2022/06/20 03:29:54;;;;;;;18.67;8.23;;;;;;;25.38;50.39;97076.34;8481474;28;20228;-81
2022/06/20 03:33:56;;;;;;;20.70;8.70;;;;;;;25.31;50.62;97070.97;8482288;28;20222;-81
2022/06/20 03:38:00;;;;;;;16.37;8.60;;;;;;;25.30;50.39;97069.31;8482180;28;20238;-81
2022/06/20 03:42:05;;;;;;;21.70;8.90;;;;;;;25.30;50.35;97082.56;8481804;28;20232;-81
2022/06/20 03:46:11;;;;;;;20.77;8.47;;;;;;;25.23;50.67;97087.78;8482016;28;20234;-82
2022/06/20 03:50:18;;;;;;;23.00;8.70;;;;;;;25.18;50.82;97090.94;8481525;28;20238;-81
2022/06/20 03:54:24;;;;;;;19.60;8.93;;;;;;;25.08;51.44;97093.03;8481394;28;20403;-82
2022/06/20 03:58:33;;;;;;;19.43;9.07;;;;;;;25.10;51.45;97117.53;8514726;28;20235;-81
2022/06/20 04:02:40;;;;;;;24.23;9.27;;;;;;;25.12;51.17;97117.34;8515099;28;20224;-81
2022/06/20 04:06:46;;;;;;;16.93;8.50;;;;;;;25.10;51.33;97136.06;8515297;28;20230;-81
2022/06/20 04:11:02;;;;;;;17.10;8.57;;;;;;;25.02;51.96;97136.16;8514969;28;20543;-81
2022/06/20 04:15:10;;;;;;;21.13;9.03;;;;;;;25.17;50.86;97146.78;8515170;28;20227;-81
2022/06/20 04:19:16;;;;;;;21.47;9.10;;;;;;;25.22;51.02;97160.28;8483349;28;20232;-81
2022/06/20 04:23:24;;;;;;;18.77;8.70;;;;;;;25.27;51.11;97183.63;8480893;28;20534;-82
2022/06/20 04:27:30;;;;;;;17.47;8.73;;;;;;;25.26;51.02;97208.47;8480671;28;20233;-82
2022/06/20 04:31:40;;;;;;;23.27;8.60;;;;;;;25.03;51.65;97270.22;8480673;28;20233;-81
2022/06/20 04:35:46;;;;;;;25.00;8.87;;;;;;;25.01;51.75;97256.31;8480289;28;20279;-81
2022/06/20 04:39:52;;;;;;;22.97;8.80;;;;;;;24.94;52.13;97250.06;8480092;28;20257;-80
2022/06/20 04:43:59;;;;;;;21.77;7.83;;;;;;;24.97;52.87;97249.72;8480155;28;20226;-80
2022/06/20 04:48:07;;;;;;;19.93;7.90;;;;;;;24.84;54.61;97273.31;8486392;28;20635;-79
2022/06/20 04:52:13;;;;;;;21.37;7.67;;;;;;;24.78;54.89;97262.44;8486257;28;20235;-79
2022/06/20 04:56:25;;;;;;;18.97;7.23;;;;;;;24.82;54.84;97260.25;8486235;28;20239;-81
2022/06/20 05:00:30;;;;;;;19.87;7.50;;;;;;;24.93;54.44;97281.03;8451761;28;20232;-78
2022/06/20 05:04:38;;;;;;;18.73;7.73;;;;;;;24.84;55.36;97262.72;8480829;27;20226;-81
2022/06/20 05:08:46;;;;;;;15.17;7.20;;;;;;;24.96;55.11;97243.63;8485918;28;20424;-80
2022/06/20 05:12:54;;;;;;;19.97;7.80;;;;;;;24.84;55.43;97250.31;8486057;27;20553;-81
2022/06/20 05:16:57;;;;;;;14.97;7.27;;;;;;;24.80;55.65;97214.59;8486728;28;20238;-80
2022/06/20 05:21:06;;;;;;;15.47;6.90;;;;;;;24.68;55.80;97203.59;8485609;28;20235;-81
2022/06/20 05:25:15;;;;;;;16.87;7.23;;;;;;;24.69;54.91;97207.88;8485688;27;20233;-81
2022/06/20 05:29:22;;;;;;;20.60;7.13;;;;;;;24.35;54.76;97208.22;8485217;27;20234;-80
2022/06/20 05:33:28;;;;;;;17.57;6.90;;;;;;;24.50;54.53;97238.25;8484612;28;20291;-80
2022/06/20 05:37:37;;;;;;;17.03;6.93;;;;;;;24.64;53.84;97247.31;8484998;28;20236;-80
2022/06/20 05:41:45;;;;;;;21.20;7.07;;;;;;;24.70;53.25;97266.97;8484910;27;20551;-80
2022/06/20 05:45:50;;;;;;;16.00;7.03;;;;;;;24.64;53.40;97302.91;8484817;28;20412;-80
2022/06/20 05:49:57;;;;;;;15.03;6.73;;;;;;;24.77;53.10;97344.69;8484755;27;20234;-80
2022/06/20 05:54:04;;;;;;;20.90;7.00;;;;;;;24.83;52.88;97332.56;8484884;28;20224;-80
2022/06/20 05:58:08;;;;;;;16.93;6.87;;;;;;;24.75;53.25;97315.75;8484347;28;20237;-81
2022/06/20 06:02:21;;;;;;;21.00;6.87;;;;;;;24.90;52.75;97310.53;8484429;27;20261;-80
2022/06/20 06:06:28;;;;;;;17.80;6.70;;;;;;;25.10;53.10;97315.38;8483868;28;20221;-80
2022/06/20 06:10:40;;;;;;;18.53;6.63;;;;;;;25.14;52.50;97308.72;8484056;27;20236;-81
2022/06/20 06:14:46;;;;;;;13.20;6.60;;;;;;;25.14;52.36;97308.72;8483831;28;20421;-81
2022/06/20 06:18:52;;;;;;;14.67;6.57;;;;;;;25.24;52.23;97327.88;8483762;28;20522;-80
2022/06/20 06:22:59;;;;;;;13.87;6.33;;;;;;;25.21;52.83;97345.91;8483440;27;20227;-81
2022/06/20 06:27:06;;;;;;;16.40;6.50;;;;;;;25.20;52.15;97352.22;8483757;27;20427;-80
2022/06/20 06:31:13;;;;;;;15.67;5.87;;;;;;;24.98;52.13;97376.69;8483473;28;20273;-81
2022/06/20 06:35:21;;;;;;;18.43;6.17;;;;;;;25.02;51.63;97393.06;8483869;28;20236;-80
2022/06/20 06:39:28;;;;;;;21.37;6.60;;;;;;;24.92;51.98;97408.31;8491553;27;20234;-81
2022/06/20 06:43:37;;;;;;;15.90;5.90;;;;;;;24.57;53.17;97397.22;8483173;27;20230;-81
2022/06/20 06:47:43;;;;;;;14.37;6.27;;;;;;;24.67;52.51;97391.72;8483176;28;20230;-82
2022/06/20 06:51:51;;;;;;;15.50;6.07;;;;;;;24.76;52.30;97388.03;8482991;28;20227;-82
2022/06/20 06:55:57;;;;;;;15.77;5.90;;;;;;;24.73;52.96;97367.19;8482671;28;20231;-81
2022/06/20 07:00:25;;;;;;;17.87;6.73;;;;;;;24.64;53.20;97328.53;8482846;28;20547;-81
2022/06/20 07:04:29;;;;;;;17.40;5.73;;;;;;;24.71;53.35;97317.09;8482764;28;20237;-81
2022/06/20 07:08:38;;;;;;;16.63;6.07;;;;;;;24.90;52.07;97325.56;8482615;28;20606;-81
2022/06/20 07:12:45;;;;;;;15.10;6.57;;;;;;;24.82;53.18;97336.22;8482838;28;20228;-81
2022/06/20 07:16:53;;;;;;;15.13;6.23;;;;;;;24.92;53.38;97342.13;8482867;28;20226;-81
2022/06/20 07:20:56;;;;;;;14.07;6.33;;;;;;;25.10;52.82;97328.63;8482930;28;20240;-82
2022/06/20 07:24:59;;;;;;;18.47;6.03;;;;;;;25.33;52.04;97316.22;8485119;27;20223;-81
2022/06/20 07:29:06;;;;;;;11.73;5.87;;;;;;;25.35;52.68;97342.56;8482639;28;20232;-81
2022/06/20 07:33:14;;;;;;;18.33;6.40;;;;;;;25.31;52.10;97331.47;8485127;28;20556;-82
2022/06/20 07:37:19;;;;;;;13.23;6.63;;;;;;;25.07;52.90;97284.75;8483682;28;20223;-81
2022/06/20 07:41:25;;;;;;;12.67;6.33;;;;;;;25.07;53.04;97275.97;8515202;27;20226;-80
2022/06/20 07:45:33;;;;;;;13.60;5.97;;;;;;;25.19;51.96;97303.72;8515725;27;20534;-80
2022/06/20 07:49:41;;;;;;;10.50;5.93;;;;;;;25.67;51.27;97316.78;8515720;27;20427;-80
2022/06/20 07:53:46;;;;;;;10.93;5.87;;;;;;;25.70;50.64;97311.97;8515950;27;20226;-80
2022/06/20 07:57:54;;;;;;;15.20;6.10;;;;;;;26.65;48.59;97301.66;8515369;27;20432;-80
2022/06/20 08:01:59;;;;;;;13.50;5.63;;;;;;;26.69;48.05;97316.22;8515289;28;20235;-80
2022/06/20 08:06:12;;;;;;;14.47;6.10;;;;;;;26.26;48.66;97313.41;8515593;28;20231;-80
2022/06/20 08:10:17;;;;;;;17.27;6.40;;;;;;;26.06;49.50;97319.22;8515352;28;20242;-81
2022/06/20 08:14:34;;;;;;;12.97;6.27;;;;;;;25.83;49.51;97353.75;8480949;28;20229;-80
2022/06/20 08:18:37;;;;;;;13.37;5.60;;;;;;;25.91;49.48;97380.25;8481137;28;20232;-80
2022/06/20 08:22:47;;;;;;;21.73;5.83;;;;;;;26.24;47.62;97387.06;8487767;27;20248;-80
2022/06/20 08:26:55;;;;;;;17.43;5.80;;;;;;;26.65;46.78;97400.72;8487936;28;20234;-81
2022/06/20 08:31:02;;;;;;;14.27;5.83;;;;;;;27.37;45.23;97401.84;8487819;27;20228;-80
2022/06/20 08:35:13;;;;;;;10.00;5.20;;;;;;;27.24;45.99;97391.84;8488172;27;20288;-80
2022/06/20 08:39:20;;;;;;;14.23;5.73;;;;;;;27.14;45.68;97394.00;8487873;28;20506;-80
2022/06/20 08:43:53;;;;;;;15.40;5.97;;;;;;;27.28;45.23;97395.81;8520930;27;20561;-79
2022/06/20 08:48:16;;;;;;;20.40;6.57;;;;;;;28.19;43.69;97400.53;8512295;27;20230;-79
2022/06/20 08:52:48;;;;;;;20.73;5.67;;;;;;;28.77;42.34;97386.16;8520709;27;20221;-80
2022/06/20 08:56:59;;;;;;;14.10;5.23;;;;;;;29.24;41.21;97373.84;8486610;28;20234;-79
2022/06/20 09:01:05;;;;;;;14.73;5.77;;;;;;;29.50;40.23;97370.41;8486273;28;20237;-84
2022/06/20 09:05:21;;;;;;;13.30;5.87;;;;;;;29.70;39.21;97378.44;8486561;28;20274;-82
2022/06/20 09:09:41;;;;;;;16.77;5.97;;;;;;;29.75;39.46;97384.00;8485889;28;20265;-82
2022/06/20 09:13:57;;;;;;;15.00;5.73;;;;;;;30.15;37.77;97393.88;8486238;28;20232;-82
2022/06/20 09:18:10;;;;;;;11.20;5.30;;;;;;;30.18;37.58;97380.94;8486133;27;20232;-83
2022/06/20 09:22:23;;;;;;;15.00;5.40;;;;;;;30.36;36.73;97388.31;8485993;27;20230;-83
2022/06/20 09:26:30;;;;;;;11.47;4.53;;;;;;;30.59;36.52;97390.50;8519222;27;20556;-80
2022/06/20 09:30:41;;;;;;;17.60;5.20;;;;;;;30.75;36.38;97389.25;8519225;27;20236;-79
2022/06/20 09:35:11;;;;;;;11.73;5.47;;;;;;;31.02;35.86;97383.81;8519720;27;20243;-81
2022/06/20 09:39:22;;;;;;;15.57;5.43;;;;;;;31.14;35.03;97382.09;8519657;27;20430;-79
2022/06/20 09:43:35;;;;;;;13.67;5.30;;;;;;;31.06;35.07;97366.31;8493560;27;20244;-81
2022/06/20 09:47:48;;;;;;;12.70;5.40;;;;;;;31.46;34.54;97365.28;8485524;28;20230;-83
2022/06/20 09:51:58;;;;;;;17.03;5.17;;;;;;;31.65;33.78;97363.53;8484701;28;20230;-82
2022/06/20 09:56:06;;;;;;;13.47;5.10;;;;;;;31.83;33.46;97366.25;8484766;28;20246;-83
2022/06/20 10:00:12;;;;;;;9.67;4.40;;;;;;;31.75;33.46;97359.31;8484321;27;20239;-82
2022/06/20 10:04:32;;;;;;;11.97;4.87;;;;;;;32.15;32.46;97364.34;8484268;28;20237;-83
2022/06/20 10:09:02;;;;;;;10.03;4.90;;;;;;;32.43;32.46;97368.41;8517942;27;20240;-83
2022/06/20 10:13:11;;;;;;;13.57;4.43;;;;;;;32.42;31.72;97372.13;8518566;27;20227;-81
2022/06/20 10:17:19;;;;;;;16.27;5.03;;;;;;;32.84;31.25;97385.72;8518094;27;20579;-81
2022/06/20 10:21:28;;;;;;;14.93;4.30;;;;;;;32.56;30.91;97390.72;8483648;28;20240;-82
2022/06/20 10:25:58;;;;;;;10.73;4.20;;;;;;;31.84;31.63;97389.31;8484011;27;20233;-83
2022/06/20 10:30:08;;;;;;;9.90;3.80;;;;;;;31.48;31.81;97382.78;8458432;27;20227;-84
2022/06/20 10:34:15;;;;;;;12.07;3.97;;;;;;;31.24;32.77;97394.19;8483809;27;20249;-86
2022/06/20 10:38:38;;;;;;;10.40;3.97;;;;;;;30.39;33.24;97403.13;8480329;28;20235;-83
2022/06/20 10:42:45;;;;;;;14.10;3.97;;;;;;;30.60;34.04;97405.53;8488690;27;20254;-84
2022/06/20 10:46:56;;;;;;;10.83;3.53;;;;;;;30.51;34.28;97411.31;8482928;28;20228;-84
2022/06/20 10:51:02;;;;;;;11.70;3.63;;;;;;;30.26;33.82;97403.91;8483470;27;20234;-89
2022/06/20 10:55:17;;;;;;;11.70;3.97;;;;;;;29.72;35.85;97405.75;8493480;27;20235;-84
2022/06/20 10:59:32;;;;;;;8.83;3.90;;;;;;;29.98;34.91;97412.16;8501237;28;20232;-88
2022/06/20 11:03:47;;;;;;;13.17;4.00;;;;;;;30.18;34.59;97414.81;8485383;28;20221;-82
2022/06/20 11:07:55;;;;;;;9.97;4.10;;;;;;;29.73;35.84;97434.09;8482729;28;20244;-84
2022/06/20 11:12:04;;;;;;;12.03;4.40;;;;;;;29.18;36.61;97441.31;8482736;28;20528;-87
2022/06/20 11:16:18;;;;;;;12.10;4.03;;;;;;;29.15;36.27;97449.69;8483328;27;20524;-88
2022/06/20 11:20:26;;;;;;;9.87;3.77;;;;;;;29.20;36.31;97450.75;8476747;27;20233;-88
2022/06/20 11:24:38;;;;;;;12.40;4.17;;;;;;;29.32;36.22;97448.34;8448499;28;20238;-85
2022/06/20 11:28:53;;;;;;;13.07;3.80;;;;;;;29.34;35.15;97443.63;8451422;28;20244;-87
2022/06/20 11:33:06;;;;;;;13.73;3.73;;;;;;;29.18;35.67;97454.63;8450962;28;20227;-86
2022/06/20 11:37:24;;;;;;;10.33;3.60;;;;;;;28.82;36.42;97461.81;8450861;28;20237;-86
2022/06/20 11:41:32;;;;;;;14.33;4.00;;;;;;;28.62;37.39;97471.53;8447715;28;20237;-86
2022/06/20 11:45:52;;;;;;;15.77;4.00;;;;;;;28.23;37.84;97478.97;8448265;28;20230;-85
2022/06/20 11:50:22;;;;;;;10.67;3.33;;;;;;;27.88;38.65;97478.88;8448806;28;20232;-85
2022/06/20 11:54:35;;;;;;;15.80;3.10;;;;;;;27.43;39.12;97496.78;8447222;28;20234;-87
2022/06/20 11:59:02;;;;;;;19.93;3.50;;;;;;;27.48;39.66;97493.59;8447535;28;20253;-85
2022/06/20 12:03:14;;;;;;;13.23;3.07;;;;;;;27.27;39.95;97508.47;8451782;28;20236;-87
2022/06/20 12:07:20;;;;;;;15.83;3.00;;;;;;;27.52;39.90;97508.16;8482036;28;20232;-85
2022/06/20 12:11:40;;;;;;;21.20;3.33;;;;;;;27.28;40.19;97533.19;8481236;28;20231;-86
2022/06/20 12:15:46;;;;;;;14.30;3.20;;;;;;;26.31;42.53;97540.09;8481331;28;20553;-83
2022/06/20 12:24:36;;;;;;;17.93;3.30;;;;;;;26.55;42.83;97554.16;8480738;28;20222;-84
2022/06/20 12:28:44;;;;;;;11.73;3.40;;;;;;;26.96;41.53;97537.03;8480933;28;20225;-86
2022/06/20 12:32:51;;;;;;;15.67;2.90;;;;;;;26.79;41.89;97547.84;8453716;28;20243;-87
2022/06/20 12:36:59;;;;;;;16.27;2.90;;;;;;;27.15;41.28;97568.38;8447084;28;20234;-87
2022/06/20 12:41:05;;;;;;;22.40;2.73;;;;;;;27.25;41.18;97578.78;8447643;28;20230;-86
2022/06/20 12:45:29;;;;;;;11.17;2.80;;;;;;;27.50;40.80;97574.00;8447503;28;20239;-86
2022/06/20 12:49:44;;;;;;;7.47;2.23;;;;;;;27.30;40.88;97584.34;8446922;28;20238;-83
2022/06/20 12:54:04;;;;;;;7.67;2.67;;;;;;;26.98;41.83;97582.84;8447142;28;20229;-89
2022/06/20 12:58:42;;;;;;;10.43;3.03;;;;;;;26.81;42.59;97601.59;8447419;28;20235;-83
2022/06/20 13:03:44;;;;;;;12.23;2.60;;;;;;;26.68;43.14;97612.81;8415338;28;20604;-84
2022/06/20 13:08:23;;;;;;;8.93;2.30;;;;;;;26.30;43.20;97625.22;8350021;28;20282;-88
2022/06/20 13:12:45;;;;;;;5.93;2.13;;;;;;;26.08;43.44;97627.66;8475114;27;20233;-85
2022/06/20 13:16:57;;;;;;;7.53;2.50;;;;;;;26.05;44.11;97624.53;8520140;27;20228;-84
2022/06/20 13:21:04;;;;;;;6.20;2.67;;;;;;;26.05;44.17;97643.09;8519563;27;20226;-87
2022/06/20 13:25:19;;;;;;;8.83;2.60;;;;;;;26.02;44.29;97651.41;8520123;27;20227;-84
2022/06/20 13:29:32;;;;;;;7.90;2.50;;;;;;;25.87;44.51;97651.28;8520238;27;20241;-86
2022/06/20 13:33:42;;;;;;;6.73;2.50;;;;;;;25.97;45.01;97646.63;8519397;27;20229;-85
2022/06/20 13:37:49;;;;;;;7.17;2.67;;;;;;;26.01;43.86;97647.94;8519819;27;20232;-83
2022/06/20 13:41:54;;;;;;;6.60;2.30;;;;;;;25.68;45.86;97642.75;8519464;27;20223;-83
2022/06/20 13:46:01;;;;;;;8.20;2.73;;;;;;;25.90;44.29;97641.16;8519272;27;20548;-84
2022/06/20 13:50:17;;;;;;;11.20;3.00;;;;;;;25.87;44.68;97651.28;8519595;27;20514;-88
2022/06/20 13:54:25;;;;;;;9.47;2.67;;;;;;;25.84;44.57;97641.84;8519536;27;20240;-86
2022/06/20 13:58:36;;;;;;;6.40;2.27;;;;;;;25.47;45.80;97648.59;8518276;27;20518;-86
2022/06/20 14:02:42;;;;;;;14.40;2.80;;;;;;;25.80;45.33;97652.94;8518897;27;20239;-86
2022/06/20 14:06:51;;;;;;;7.13;2.67;;;;;;;25.54;45.54;97640.78;8518829;27;20220;-87
2022/06/20 14:10:56;;;;;;;9.73;2.63;;;;;;;25.56;45.89;97644.09;8518795;27;20228;-87
2022/06/20 14:15:02;;;;;;;8.87;2.93;;;;;;;25.81;46.14;97651.97;8518673;27;20241;-86
2022/06/20 14:19:13;;;;;;;10.57;2.87;;;;;;;25.66;44.69;97638.59;8520068;27;20228;-86
2022/06/20 14:23:18;;;;;;;7.30;2.67;;;;;;;26.62;42.63;97633.97;8537445;27;20221;-85
2022/06/20 14:27:23;;;;;;;8.77;3.00;;;;;;;27.39;41.88;97625.78;8529000;27;20236;-87
2022/06/20 14:31:29;;;;;;;7.90;2.97;;;;;;;26.93;41.02;97620.59;8518913;27;20232;-89
2022/06/20 14:35:41;;;;;;;8.43;2.90;;;;;;;26.98;42.99;97626.19;8517927;27;20235;-88
2022/06/20 14:39:48;;;;;;;9.97;2.80;;;;;;;26.76;41.54;97630.53;8516887;27;20231;-91
2022/06/20 14:43:52;;;;;;;6.17;2.90;;;;;;;25.87;43.02;97640.66;8517863;27;20313;-89
2022/06/20 14:48:00;;;;;;;6.67;2.53;;;;;;;26.03;43.09;97645.94;8518146;27;20290;-95
2022/06/20 14:52:15;;;;;;;6.67;2.63;;;;;;;25.95;42.83;97656.59;8517209;27;20526;-87
2022/06/20 14:56:22;;;;;;;7.03;2.37;;;;;;;26.07;42.71;97647.22;8518025;27;20241;-87
2022/06/20 15:00:29;;;;;;;6.83;2.63;;;;;;;26.05;43.38;97651.06;8499786;27;20237;-88
2022/06/20 15:04:36;;;;;;;8.60;2.30;;;;;;;25.64;43.29;97644.06;8483666;28;20233;-87
2022/06/20 15:08:50;;;;;;;8.37;2.93;;;;;;;25.85;44.64;97651.44;8484320;28;20274;-87
2022/06/20 15:12:56;;;;;;;6.67;2.70;;;;;;;25.72;43.08;97659.13;8484018;28;20408;-85
2022/06/20 15:17:03;;;;;;;6.33;2.30;;;;;;;26.06;43.85;97650.06;8482925;28;20236;-88
2022/06/20 15:21:18;;;;;;;5.47;2.20;;;;;;;26.06;43.08;97658.00;8482268;28;20250;-92
2022/06/20 15:25:28;;;;;;;10.30;2.50;;;;;;;26.04;43.76;97657.34;8484443;28;20244;-86
2022/06/20 15:29:51;;;;;;;3.23;2.10;;;;;;;26.61;43.18;97659.69;8483253;28;20240;-94
2022/06/20 15:33:56;;;;;;;6.03;2.10;;;;;;;26.16;43.26;97671.06;8484544;28;20232;-89
2022/06/20 15:38:01;;;;;;;5.43;2.20;;;;;;;25.68;44.17;97671.91;8484471;28;20235;-93
2022/06/20 15:42:14;;;;;;;3.50;1.83;;;;;;;25.83;42.15;97673.84;8484830;27;20236;-91
2022/06/20 15:46:21;;;;;;;4.10;1.67;;;;;;;26.28;43.15;97674.97;8461082;28;20241;-92
2022/06/20 15:50:26;;;;;;;5.97;1.50;;;;;;;26.03;42.82;97683.06;8450221;28;20229;-94
2022/06/20 15:54:40;;;;;;;4.07;1.30;;;;;;;25.77;40.78;97687.78;8449945;28;20557;-92
2022/06/20 15:59:08;;;;;;;5.70;1.00;;;;;;;25.84;41.72;97678.97;8449533;28;20234;-92
2022/06/20 16:03:41;;;;;;;2.40;1.33;;;;;;;25.99;42.56;97672.97;8454981;28;20427;-89
2022/06/20 16:07:52;;;;;;;3.37;1.13;;;;;;;26.90;40.21;97660.78;8513589;28;20437;-96
2022/06/20 16:12:05;;;;;;;3.37;1.37;;;;;;;26.79;38.43;97658.53;8520285;27;20233;-91
2022/06/20 16:16:12;;;;;;;4.03;1.20;;;;;;;26.23;41.19;97674.66;8517949;27;20562;-93
2022/06/20 16:20:23;;;;;;;6.00;1.70;;;;;;;26.62;39.42;97679.13;8520842;27;20299;-86
2022/06/20 16:24:36;;;;;;;7.80;1.60;;;;;;;26.57;38.04;97681.44;8483054;28;20246;-96
2022/06/20 16:28:59;;;;;;;2.87;0.90;;;;;;;25.84;39.82;97686.94;8482021;28;20428;-88
2022/06/20 16:33:17;;;;;;;6.30;1.60;;;;;;;26.31;39.57;97691.38;8481725;28;20383;-92
2022/06/20 16:37:22;;;;;;;2.30;0.87;;;;;;;26.39;37.33;97687.00;8481214;28;20328;-87
2022/06/20 16:41:36;;;;;;;5.50;1.70;;;;;;;25.95;37.52;97704.34;8482981;27;20566;-90
2022/06/20 16:45:45;;;;;;;5.43;1.37;;;;;;;25.62;38.69;97709.69;8488144;28;20234;-86
2022/06/20 16:49:54;;;;;;;8.73;1.53;;;;;;;25.68;41.66;97716.16;8487966;28;20225;-90
2022/06/20 16:54:01;;;;;;;7.50;1.60;;;;;;;25.44;40.98;97712.56;8488042;28;20237;-90
2022/06/20 16:58:11;;;;;;;5.77;1.60;;;;;;;25.81;41.99;97727.03;8488099;28;20238;-90
2022/06/20 17:02:17;;;;;;;5.37;1.40;;;;;;;25.72;38.49;97722.75;8487518;27;20236;-89
2022/06/20 17:06:23;;;;;;;1.90;0.70;;;;;;;25.19;37.65;97725.00;8487357;28;20239;-84
2022/06/20 17:10:35;;;;;;;7.60;1.27;;;;;;;25.28;38.17;97728.47;8487173;28;20230;-84
2022/06/20 17:15:00;;;;;;;31.70;12.47;;;;;;;24.95;39.03;97734.56;8494369;27;20405;-87
2022/06/20 17:19:05;;;;;;;40.70;20.50;;;;;;;24.89;45.41;97748.47;8453644;28;20225;-89
2022/06/20 17:23:14;;;;;;;27.67;12.03;;;;;;;25.42;42.55;97735.75;8488442;28;20234;-89
2022/06/20 17:27:23;;;;;;;25.33;12.43;;;;;;;25.63;44.65;97739.72;8487362;27;20232;-88
2022/06/20 17:31:33;;;;;;;26.67;11.70;;;;;;;25.68;45.37;97740.00;8520428;27;20244;-89
2022/06/20 17:35:41;;;;;;;32.07;13.83;;;;;;;25.35;45.48;97756.78;8520858;27;20237;-90
2022/06/20 17:39:55;;;;;;;27.37;14.40;;;;;;;25.11;46.29;97764.72;8522146;27;20225;-93
2022/06/20 17:44:05;;;;;;;21.90;11.37;;;;;;;25.14;46.20;97772.34;8522871;27;20284;-95
2022/06/20 17:48:13;;;;;;;24.40;12.07;;;;;;;25.14;46.49;97775.81;8523014;27;20229;-88
2022/06/20 17:52:25;;;;;;;22.80;10.77;;;;;;;25.18;47.08;97769.19;8542857;27;20275;-86
2022/06/20 17:56:35;;;;;;;15.40;5.90;;;;;;;24.48;43.11;97782.78;8488311;27;20241;-90
2022/06/20 18:00:40;;;;;;;13.50;7.13;;;;;;;24.76;40.44;97799.28;8485393;28;20253;-89
2022/06/20 18:04:45;;;;;;;14.23;5.43;;;;;;;24.80;45.49;97785.72;8486088;28;20421;-90
2022/06/20 18:08:52;;;;;;;10.37;4.73;;;;;;;24.85;44.17;97783.41;8485451;28;20230;-86
2022/06/20 18:13:01;;;;;;;8.43;4.17;;;;;;;24.80;43.75;97788.38;8485144;27;20235;-81
2022/06/20 18:17:08;;;;;;;1.13;0.70;;;;;;;24.06;34.17;97802.09;8484721;28;20223;-82
2022/06/20 18:21:17;;;;;;;1.27;0.47;;;;;;;23.79;33.16;97801.31;8486668;28;20232;-84
2022/06/20 18:25:24;;;;;;;1.60;0.60;;;;;;;23.48;32.78;97808.81;8484333;28;20243;-82
2022/06/20 18:29:29;;;;;;;3.17;0.90;;;;;;;23.30;32.22;97808.00;8483883;28;20229;-82
2022/06/20 18:33:36;;;;;;;1.93;0.70;;;;;;;23.07;32.15;97812.94;8484479;28;20228;-83
2022/06/20 18:37:39;;;;;;;1.83;0.80;;;;;;;23.11;31.56;97817.75;8483848;28;20225;-83
2022/06/20 18:41:48;;;;;;;2.23;0.70;;;;;;;23.03;31.03;97821.13;8483313;28;20243;-84
2022/06/20 18:45:52;;;;;;;3.10;1.00;;;;;;;22.89;31.05;97823.47;8483460;28;20221;-80
2022/06/20 18:50:14;;;;;;;3.73;1.00;;;;;;;23.11;30.96;97833.59;8483316;27;20232;-83
2022/06/20 18:54:21;;;;;;;3.77;1.13;;;;;;;23.10;30.52;97833.75;8480238;27;20234;-86
2022/06/20 18:58:38;;;;;;;2.60;1.00;;;;;;;23.01;30.75;97840.72;8464673;28;20393;-86
2022/06/20 19:02:55;;;;;;;4.03;0.83;;;;;;;22.90;30.82;97843.59;8467005;28;20536;-86
2022/06/20 19:07:12;;;;;;;2.00;1.00;;;;;;;22.76;31.33;97844.94;8465068;27;20392;-85
2022/06/20 19:11:45;;;;;;;2.10;0.97;;;;;;;22.65;30.72;97848.59;8478376;28;20230;-85
2022/06/20 19:15:56;;;;;;;3.30;1.00;;;;;;;22.63;31.39;97842.63;8473690;27;20232;-85
2022/06/20 19:20:24;;;;;;;2.63;1.00;;;;;;;22.47;30.96;97853.00;8473004;27;20256;-85
2022/06/20 19:24:30;;;;;;;1.80;0.93;;;;;;;22.45;31.37;97863.69;8465471;28;20224;-88
2022/06/20 19:28:36;;;;;;;6.27;1.10;;;;;;;22.26;31.84;97869.88;8477584;28;20282;-86